sensor_id;sensor_type;location;lat;lon;timestamp;temperature;humidity
298;DHT22;133;49.626;9.680;2022-08-20T00:00:47;20.60;82.80
298;DHT22;133;49.626;9.680;2022-08-20T00:03:20;20.60;82.90
298;DHT22;133;49.626;9.680;2022-08-20T00:05:49;20.50;82.70
298;DHT22;133;49.626;9.680;2022-08-20T00:08:17;20.40;82.90
298;DHT22;133;49.626;9.680;2022-08-20T00:10:44;20.40;82.80
298;DHT22;133;49.626;9.680;2022-08-20T00:13:17;20.30;82.90
298;DHT22;133;49.626;9.680;2022-08-20T00:15:44;20.30;83.30
298;DHT22;133;49.626;9.680;2022-08-20T00:18:10;20.20;83.50
298;DHT22;133;49.626;9.680;2022-08-20T00:20:41;20.20;83.60
298;DHT22;133;49.626;9.680;2022-08-20T00:23:07;20.20;83.50
298;DHT22;133;49.626;9.680;2022-08-20T00:25:33;20.10;83.40
298;DHT22;133;49.626;9.680;2022-08-20T00:27:59;20.20;83.60
298;DHT22;133;49.626;9.680;2022-08-20T00:30:29;20.20;83.20
298;DHT22;133;49.626;9.680;2022-08-20T00:33:08;20.20;83.10
298;DHT22;133;49.626;9.680;2022-08-20T00:35:38;20.10;82.80
298;DHT22;133;49.626;9.680;2022-08-20T00:38:04;20.10;82.60
298;DHT22;133;49.626;9.680;2022-08-20T00:40:36;20.20;82.50
298;DHT22;133;49.626;9.680;2022-08-20T00:43:05;20.20;81.40
298;DHT22;133;49.626;9.680;2022-08-20T00:45:33;20.20;81.60
298;DHT22;133;49.626;9.680;2022-08-20T00:48:00;20.30;81.60
298;DHT22;133;49.626;9.680;2022-08-20T00:50:31;20.20;81.50
298;DHT22;133;49.626;9.680;2022-08-20T00:52:59;20.20;81.80
298;DHT22;133;49.626;9.680;2022-08-20T00:55:28;20.10;82.20
298;DHT22;133;49.626;9.680;2022-08-20T00:57:57;20.10;82.10
298;DHT22;133;49.626;9.680;2022-08-20T01:00:40;20.10;82.00
298;DHT22;133;49.626;9.680;2022-08-20T01:03:09;20.10;81.80
298;DHT22;133;49.626;9.680;2022-08-20T01:05:44;20.10;81.20
298;DHT22;133;49.626;9.680;2022-08-20T01:08:11;20.10;81.40
298;DHT22;133;49.626;9.680;2022-08-20T01:10:40;20.10;80.90
298;DHT22;133;49.626;9.680;2022-08-20T01:13:09;20.10;79.70
298;DHT22;133;49.626;9.680;2022-08-20T01:15:38;20.10;79.90
298;DHT22;133;49.626;9.680;2022-08-20T01:18:06;20.10;80.10
298;DHT22;133;49.626;9.680;2022-08-20T01:23:37;20.20;80.10
298;DHT22;133;49.626;9.680;2022-08-20T01:26:09;20.20;79.80
298;DHT22;133;49.626;9.680;2022-08-20T01:28:44;20.20;79.60
298;DHT22;133;49.626;9.680;2022-08-20T01:31:17;20.30;78.50
298;DHT22;133;49.626;9.680;2022-08-20T01:33:43;20.30;78.10
298;DHT22;133;49.626;9.680;2022-08-20T01:36:10;20.30;78.30
298;DHT22;133;49.626;9.680;2022-08-20T01:38:36;20.30;78.20
298;DHT22;133;49.626;9.680;2022-08-20T01:41:19;20.30;77.70
298;DHT22;133;49.626;9.680;2022-08-20T01:43:51;20.20;78.00
298;DHT22;133;49.626;9.680;2022-08-20T01:46:24;20.20;78.00
298;DHT22;133;49.626;9.680;2022-08-20T01:48:52;20.30;77.10
298;DHT22;133;49.626;9.680;2022-08-20T01:51:23;20.30;77.00
298;DHT22;133;49.626;9.680;2022-08-20T01:53:52;20.30;77.00
298;DHT22;133;49.626;9.680;2022-08-20T01:56:22;20.40;77.20
298;DHT22;133;49.626;9.680;2022-08-20T01:58:49;20.40;77.00
298;DHT22;133;49.626;9.680;2022-08-20T02:01:38;20.50;76.60
298;DHT22;133;49.626;9.680;2022-08-20T02:04:08;20.60;75.90
298;DHT22;133;49.626;9.680;2022-08-20T02:06:40;20.60;75.80
298;DHT22;133;49.626;9.680;2022-08-20T02:09:07;20.70;75.90
298;DHT22;133;49.626;9.680;2022-08-20T02:11:34;20.70;75.60
298;DHT22;133;49.626;9.680;2022-08-20T02:14:00;20.70;75.70
298;DHT22;133;49.626;9.680;2022-08-20T02:16:31;20.70;75.80
298;DHT22;133;49.626;9.680;2022-08-20T02:19:01;20.70;76.00
298;DHT22;133;49.626;9.680;2022-08-20T02:21:30;20.70;75.80
298;DHT22;133;49.626;9.680;2022-08-20T02:23:58;20.70;75.90
298;DHT22;133;49.626;9.680;2022-08-20T02:26:25;20.70;76.40
298;DHT22;133;49.626;9.680;2022-08-20T02:28:52;20.70;76.40
298;DHT22;133;49.626;9.680;2022-08-20T02:31:19;20.70;76.40
298;DHT22;133;49.626;9.680;2022-08-20T02:33:46;20.70;76.40
298;DHT22;133;49.626;9.680;2022-08-20T02:36:13;20.70;76.40
298;DHT22;133;49.626;9.680;2022-08-20T02:38:39;20.80;76.10
298;DHT22;133;49.626;9.680;2022-08-20T02:41:06;20.70;76.30
298;DHT22;133;49.626;9.680;2022-08-20T02:43:33;20.70;76.10
298;DHT22;133;49.626;9.680;2022-08-20T02:45:59;20.70;76.60
298;DHT22;133;49.626;9.680;2022-08-20T02:48:25;20.80;76.30
298;DHT22;133;49.626;9.680;2022-08-20T02:51:02;20.80;75.70
298;DHT22;133;49.626;9.680;2022-08-20T02:53:34;20.80;76.10
298;DHT22;133;49.626;9.680;2022-08-20T02:56:00;20.80;75.80
298;DHT22;133;49.626;9.680;2022-08-20T02:58:26;20.80;75.70
298;DHT22;133;49.626;9.680;2022-08-20T03:00:53;20.80;75.70
298;DHT22;133;49.626;9.680;2022-08-20T03:03:21;20.80;75.70
298;DHT22;133;49.626;9.680;2022-08-20T03:05:48;20.90;75.60
298;DHT22;133;49.626;9.680;2022-08-20T03:08:15;20.90;75.60
298;DHT22;133;49.626;9.680;2022-08-20T03:10:43;20.90;75.10
298;DHT22;133;49.626;9.680;2022-08-20T03:13:10;20.90;75.10
298;DHT22;133;49.626;9.680;2022-08-20T03:15:42;20.90;75.30
298;DHT22;133;49.626;9.680;2022-08-20T03:18:08;20.90;75.00
298;DHT22;133;49.626;9.680;2022-08-20T03:20:34;20.90;75.30
298;DHT22;133;49.626;9.680;2022-08-20T03:22:59;20.80;75.30
298;DHT22;133;49.626;9.680;2022-08-20T03:25:25;20.70;75.70
298;DHT22;133;49.626;9.680;2022-08-20T03:27:51;20.60;75.90
298;DHT22;133;49.626;9.680;2022-08-20T03:30:18;20.60;76.20
298;DHT22;133;49.626;9.680;2022-08-20T03:32:44;20.60;76.20
298;DHT22;133;49.626;9.680;2022-08-20T03:35:12;20.60;76.40
298;DHT22;133;49.626;9.680;2022-08-20T03:37:39;20.50;76.70
298;DHT22;133;49.626;9.680;2022-08-20T03:40:11;20.50;77.00
298;DHT22;133;49.626;9.680;2022-08-20T03:42:38;20.40;77.40
298;DHT22;133;49.626;9.680;2022-08-20T03:45:06;20.40;77.30
298;DHT22;133;49.626;9.680;2022-08-20T03:47:32;20.50;77.20
298;DHT22;133;49.626;9.680;2022-08-20T03:49:59;20.40;77.40
298;DHT22;133;49.626;9.680;2022-08-20T03:52:25;20.40;77.50
298;DHT22;133;49.626;9.680;2022-08-20T03:54:54;20.30;77.50
298;DHT22;133;49.626;9.680;2022-08-20T03:57:19;20.30;77.70
298;DHT22;133;49.626;9.680;2022-08-20T03:59:45;20.40;77.50
298;DHT22;133;49.626;9.680;2022-08-20T04:02:11;20.20;78.00
298;DHT22;133;49.626;9.680;2022-08-20T04:04:38;20.20;78.30
298;DHT22;133;49.626;9.680;2022-08-20T04:07:24;20.20;78.30
298;DHT22;133;49.626;9.680;2022-08-20T04:09:54;20.30;78.50
298;DHT22;133;49.626;9.680;2022-08-20T04:12:22;20.20;78.60
298;DHT22;133;49.626;9.680;2022-08-20T04:14:49;20.20;78.60
298;DHT22;133;49.626;9.680;2022-08-20T04:17:16;20.20;78.70
298;DHT22;133;49.626;9.680;2022-08-20T04:19:42;20.20;78.70
298;DHT22;133;49.626;9.680;2022-08-20T04:22:09;20.10;78.90
298;DHT22;133;49.626;9.680;2022-08-20T04:24:38;20.20;78.60
298;DHT22;133;49.626;9.680;2022-08-20T04:27:05;20.20;78.80
298;DHT22;133;49.626;9.680;2022-08-20T04:29:33;20.20;78.50
298;DHT22;133;49.626;9.680;2022-08-20T04:32:00;20.20;78.50
298;DHT22;133;49.626;9.680;2022-08-20T04:34:25;20.10;78.70
298;DHT22;133;49.626;9.680;2022-08-20T04:36:53;20.10;78.90
298;DHT22;133;49.626;9.680;2022-08-20T04:39:18;20.10;79.00
298;DHT22;133;49.626;9.680;2022-08-20T04:41:44;20.10;78.70
298;DHT22;133;49.626;9.680;2022-08-20T04:44:10;20.10;78.90
298;DHT22;133;49.626;9.680;2022-08-20T04:46:38;20.20;78.80
298;DHT22;133;49.626;9.680;2022-08-20T04:49:05;20.20;78.80
298;DHT22;133;49.626;9.680;2022-08-20T04:51:31;20.20;78.80
298;DHT22;133;49.626;9.680;2022-08-20T04:53:57;20.30;79.00
298;DHT22;133;49.626;9.680;2022-08-20T04:56:27;20.30;78.80
298;DHT22;133;49.626;9.680;2022-08-20T04:58:56;20.40;78.70
298;DHT22;133;49.626;9.680;2022-08-20T05:01:22;20.40;78.60
298;DHT22;133;49.626;9.680;2022-08-20T05:03:51;20.50;78.50
298;DHT22;133;49.626;9.680;2022-08-20T05:06:19;20.50;78.40
298;DHT22;133;49.626;9.680;2022-08-20T05:08:45;20.60;78.30
298;DHT22;133;49.626;9.680;2022-08-20T05:11:11;20.60;78.40
298;DHT22;133;49.626;9.680;2022-08-20T05:13:36;20.60;78.10
298;DHT22;133;49.626;9.680;2022-08-20T05:16:02;20.60;78.30
298;DHT22;133;49.626;9.680;2022-08-20T05:18:29;20.70;78.30
298;DHT22;133;49.626;9.680;2022-08-20T05:20:58;20.70;78.40
298;DHT22;133;49.626;9.680;2022-08-20T05:23:30;20.70;78.40
298;DHT22;133;49.626;9.680;2022-08-20T05:25:56;20.70;78.40
298;DHT22;133;49.626;9.680;2022-08-20T05:28:25;20.80;78.50
298;DHT22;133;49.626;9.680;2022-08-20T05:30:52;20.80;78.50
298;DHT22;133;49.626;9.680;2022-08-20T05:33:22;20.90;78.50
298;DHT22;133;49.626;9.680;2022-08-20T05:35:50;20.90;78.50
298;DHT22;133;49.626;9.680;2022-08-20T05:38:21;20.90;78.40
298;DHT22;133;49.626;9.680;2022-08-20T05:40:48;21.00;78.30
298;DHT22;133;49.626;9.680;2022-08-20T05:43:15;21.10;78.30
298;DHT22;133;49.626;9.680;2022-08-20T05:45:42;21.20;78.30
298;DHT22;133;49.626;9.680;2022-08-20T05:48:11;21.20;78.20
298;DHT22;133;49.626;9.680;2022-08-20T05:50:39;21.20;78.20
298;DHT22;133;49.626;9.680;2022-08-20T05:53:06;21.20;78.30
298;DHT22;133;49.626;9.680;2022-08-20T05:55:32;21.20;78.30
298;DHT22;133;49.626;9.680;2022-08-20T05:57:59;21.20;78.60
298;DHT22;133;49.626;9.680;2022-08-20T06:00:27;21.20;78.60
298;DHT22;133;49.626;9.680;2022-08-20T06:02:52;21.30;78.50
298;DHT22;133;49.626;9.680;2022-08-20T06:05:37;21.30;78.40
298;DHT22;133;49.626;9.680;2022-08-20T06:08:07;21.40;78.30
298;DHT22;133;49.626;9.680;2022-08-20T06:10:34;21.50;78.10
298;DHT22;133;49.626;9.680;2022-08-20T06:13:00;21.60;78.20
298;DHT22;133;49.626;9.680;2022-08-20T06:15:27;21.60;78.30
298;DHT22;133;49.626;9.680;2022-08-20T06:17:53;21.70;78.20
298;DHT22;133;49.626;9.680;2022-08-20T06:20:19;21.70;78.20
298;DHT22;133;49.626;9.680;2022-08-20T06:22:44;21.80;78.10
298;DHT22;133;49.626;9.680;2022-08-20T06:25:10;21.80;77.90
298;DHT22;133;49.626;9.680;2022-08-20T06:27:41;21.80;77.80
298;DHT22;133;49.626;9.680;2022-08-20T06:30:10;21.90;77.60
298;DHT22;133;49.626;9.680;2022-08-20T06:32:36;22.00;77.60
298;DHT22;133;49.626;9.680;2022-08-20T06:35:04;22.00;77.30
298;DHT22;133;49.626;9.680;2022-08-20T06:37:32;22.00;77.00
298;DHT22;133;49.626;9.680;2022-08-20T06:40:10;22.00;77.20
298;DHT22;133;49.626;9.680;2022-08-20T06:42:37;22.00;77.10
298;DHT22;133;49.626;9.680;2022-08-20T06:45:09;22.00;77.30
298;DHT22;133;49.626;9.680;2022-08-20T06:47:39;21.90;77.60
298;DHT22;133;49.626;9.680;2022-08-20T06:50:08;21.90;77.70
298;DHT22;133;49.626;9.680;2022-08-20T06:52:34;21.90;77.80
298;DHT22;133;49.626;9.680;2022-08-20T06:55:02;22.00;77.90
298;DHT22;133;49.626;9.680;2022-08-20T06:57:28;22.10;77.80
298;DHT22;133;49.626;9.680;2022-08-20T06:59:54;22.20;77.80
298;DHT22;133;49.626;9.680;2022-08-20T07:02:19;22.30;77.20
298;DHT22;133;49.626;9.680;2022-08-20T07:04:45;22.30;77.10
298;DHT22;133;49.626;9.680;2022-08-20T07:07:17;22.40;77.10
298;DHT22;133;49.626;9.680;2022-08-20T07:09:45;22.60;76.80
298;DHT22;133;49.626;9.680;2022-08-20T07:12:12;22.60;76.60
298;DHT22;133;49.626;9.680;2022-08-20T07:14:37;22.60;76.60
298;DHT22;133;49.626;9.680;2022-08-20T07:17:03;22.70;76.40
298;DHT22;133;49.626;9.680;2022-08-20T07:19:29;22.80;76.40
298;DHT22;133;49.626;9.680;2022-08-20T07:21:55;22.80;76.20
298;DHT22;133;49.626;9.680;2022-08-20T07:24:21;22.80;76.10
298;DHT22;133;49.626;9.680;2022-08-20T07:26:47;22.90;75.70
298;DHT22;133;49.626;9.680;2022-08-20T07:29:16;22.90;75.80
298;DHT22;133;49.626;9.680;2022-08-20T07:31:41;22.90;76.10
298;DHT22;133;49.626;9.680;2022-08-20T07:34:25;22.90;76.60
298;DHT22;133;49.626;9.680;2022-08-20T07:36:51;22.80;77.10
298;DHT22;133;49.626;9.680;2022-08-20T07:39:16;22.70;77.50
298;DHT22;133;49.626;9.680;2022-08-20T07:41:42;22.50;78.20
298;DHT22;133;49.626;9.680;2022-08-20T07:44:08;22.50;78.40
298;DHT22;133;49.626;9.680;2022-08-20T07:46:33;22.50;78.90
298;DHT22;133;49.626;9.680;2022-08-20T07:48:59;22.30;79.70
298;DHT22;133;49.626;9.680;2022-08-20T07:51:25;22.40;79.80
298;DHT22;133;49.626;9.680;2022-08-20T07:53:51;22.30;80.20
298;DHT22;133;49.626;9.680;2022-08-20T07:56:20;22.30;80.60
298;DHT22;133;49.626;9.680;2022-08-20T07:58:51;22.40;80.40
298;DHT22;133;49.626;9.680;2022-08-20T08:01:20;22.30;80.50
298;DHT22;133;49.626;9.680;2022-08-20T08:03:46;22.20;81.30
298;DHT22;133;49.626;9.680;2022-08-20T08:06:12;21.90;82.60
298;DHT22;133;49.626;9.680;2022-08-20T08:08:39;21.80;83.40
298;DHT22;133;49.626;9.680;2022-08-20T08:11:05;21.90;84.10
298;DHT22;133;49.626;9.680;2022-08-20T08:13:34;21.90;84.80
298;DHT22;133;49.626;9.680;2022-08-20T08:16:04;22.00;85.10
298;DHT22;133;49.626;9.680;2022-08-20T08:18:46;22.10;86.00
298;DHT22;133;49.626;9.680;2022-08-20T08:21:14;22.10;86.20
298;DHT22;133;49.626;9.680;2022-08-20T08:23:42;22.20;85.50
298;DHT22;133;49.626;9.680;2022-08-20T08:26:14;22.10;86.20
298;DHT22;133;49.626;9.680;2022-08-20T08:28:40;22.30;85.40
298;DHT22;133;49.626;9.680;2022-08-20T08:31:09;22.40;85.30
298;DHT22;133;49.626;9.680;2022-08-20T08:33:35;22.50;85.40
298;DHT22;133;49.626;9.680;2022-08-20T08:36:03;22.30;84.00
298;DHT22;133;49.626;9.680;2022-08-20T08:38:31;22.20;85.20
298;DHT22;133;49.626;9.680;2022-08-20T08:41:25;22.40;85.20
298;DHT22;133;49.626;9.680;2022-08-20T08:43:51;22.30;85.20
298;DHT22;133;49.626;9.680;2022-08-20T08:46:21;22.30;84.20
298;DHT22;133;49.626;9.680;2022-08-20T08:48:50;22.30;84.90
298;DHT22;133;49.626;9.680;2022-08-20T08:51:22;22.30;85.30
298;DHT22;133;49.626;9.680;2022-08-20T08:53:51;22.20;86.30
298;DHT22;133;49.626;9.680;2022-08-20T08:56:20;22.20;86.90
298;DHT22;133;49.626;9.680;2022-08-20T08:58:47;22.10;87.90
298;DHT22;133;49.626;9.680;2022-08-20T09:01:16;22.20;88.50
298;DHT22;133;49.626;9.680;2022-08-20T09:03:45;22.20;88.80
298;DHT22;133;49.626;9.680;2022-08-20T09:06:15;22.20;89.00
298;DHT22;133;49.626;9.680;2022-08-20T09:08:50;22.20;89.40
298;DHT22;133;49.626;9.680;2022-08-20T09:11:19;22.20;90.10
298;DHT22;133;49.626;9.680;2022-08-20T09:13:44;22.30;90.00
298;DHT22;133;49.626;9.680;2022-08-20T09:16:11;22.30;88.80
298;DHT22;133;49.626;9.680;2022-08-20T09:18:37;22.30;89.70
298;DHT22;133;49.626;9.680;2022-08-20T09:21:04;22.30;89.20
298;DHT22;133;49.626;9.680;2022-08-20T09:23:29;22.20;90.00
298;DHT22;133;49.626;9.680;2022-08-20T09:25:57;22.30;89.70
298;DHT22;133;49.626;9.680;2022-08-20T09:28:22;22.30;90.00
298;DHT22;133;49.626;9.680;2022-08-20T09:30:48;22.30;89.40
298;DHT22;133;49.626;9.680;2022-08-20T09:33:14;22.40;89.30
298;DHT22;133;49.626;9.680;2022-08-20T09:35:40;22.40;88.60
298;DHT22;133;49.626;9.680;2022-08-20T09:38:06;22.60;88.00
298;DHT22;133;49.626;9.680;2022-08-20T09:40:32;22.80;88.00
298;DHT22;133;49.626;9.680;2022-08-20T09:42:58;23.10;87.10
298;DHT22;133;49.626;9.680;2022-08-20T09:45:23;23.30;84.80
298;DHT22;133;49.626;9.680;2022-08-20T09:47:49;23.30;84.90
298;DHT22;133;49.626;9.680;2022-08-20T09:50:15;23.30;84.50
298;DHT22;133;49.626;9.680;2022-08-20T09:52:43;23.20;84.80
298;DHT22;133;49.626;9.680;2022-08-20T09:55:21;23.40;85.20
298;DHT22;133;49.626;9.680;2022-08-20T09:57:48;23.40;82.80
298;DHT22;133;49.626;9.680;2022-08-20T10:00:15;23.50;82.70
298;DHT22;133;49.626;9.680;2022-08-20T10:02:41;23.60;82.60
298;DHT22;133;49.626;9.680;2022-08-20T10:05:07;23.70;82.20
298;DHT22;133;49.626;9.680;2022-08-20T10:07:34;23.90;80.90
298;DHT22;133;49.626;9.680;2022-08-20T10:10:01;24.00;80.00
298;DHT22;133;49.626;9.680;2022-08-20T10:12:26;24.00;80.20
298;DHT22;133;49.626;9.680;2022-08-20T10:14:52;23.80;79.90
298;DHT22;133;49.626;9.680;2022-08-20T10:17:20;23.90;81.00
298;DHT22;133;49.626;9.680;2022-08-20T10:19:46;23.80;81.00
298;DHT22;133;49.626;9.680;2022-08-20T10:22:11;23.70;80.50
298;DHT22;133;49.626;9.680;2022-08-20T10:24:37;23.70;80.20
298;DHT22;133;49.626;9.680;2022-08-20T10:27:03;23.70;81.20
298;DHT22;133;49.626;9.680;2022-08-20T10:29:29;23.80;80.20
298;DHT22;133;49.626;9.680;2022-08-20T10:31:55;24.00;79.80
298;DHT22;133;49.626;9.680;2022-08-20T10:34:23;24.20;79.20
298;DHT22;133;49.626;9.680;2022-08-20T10:36:49;24.60;78.10
298;DHT22;133;49.626;9.680;2022-08-20T10:39:14;25.00;77.60
298;DHT22;133;49.626;9.680;2022-08-20T10:41:40;25.40;76.70
298;DHT22;133;49.626;9.680;2022-08-20T10:44:07;26.10;75.00
298;DHT22;133;49.626;9.680;2022-08-20T10:46:33;26.90;73.00
298;DHT22;133;49.626;9.680;2022-08-20T10:48:58;26.80;72.30
298;DHT22;133;49.626;9.680;2022-08-20T10:51:24;26.80;71.40
298;DHT22;133;49.626;9.680;2022-08-20T10:53:50;26.30;72.20
298;DHT22;133;49.626;9.680;2022-08-20T10:56:16;26.20;71.80
298;DHT22;133;49.626;9.680;2022-08-20T10:58:42;26.40;72.30
298;DHT22;133;49.626;9.680;2022-08-20T11:01:08;26.90;71.20
298;DHT22;133;49.626;9.680;2022-08-20T11:03:34;27.50;69.10
298;DHT22;133;49.626;9.680;2022-08-20T11:06:00;27.70;68.50
298;DHT22;133;49.626;9.680;2022-08-20T11:08:26;28.20;66.80
298;DHT22;133;49.626;9.680;2022-08-20T11:10:52;28.20;66.40
298;DHT22;133;49.626;9.680;2022-08-20T11:13:17;28.50;65.80
298;DHT22;133;49.626;9.680;2022-08-20T11:15:43;29.10;65.20
298;DHT22;133;49.626;9.680;2022-08-20T11:18:11;29.70;62.20
298;DHT22;133;49.626;9.680;2022-08-20T11:20:37;30.60;61.00
298;DHT22;133;49.626;9.680;2022-08-20T11:26:21;31.00;58.50
298;DHT22;133;49.626;9.680;2022-08-20T11:28:47;30.70;59.30
298;DHT22;133;49.626;9.680;2022-08-20T11:31:13;31.10;58.30
298;DHT22;133;49.626;9.680;2022-08-20T11:33:38;31.20;58.10
298;DHT22;133;49.626;9.680;2022-08-20T11:36:04;31.20;58.70
298;DHT22;133;49.626;9.680;2022-08-20T11:38:33;31.00;57.40
298;DHT22;133;49.626;9.680;2022-08-20T11:40:58;30.70;55.70
298;DHT22;133;49.626;9.680;2022-08-20T11:43:24;29.80;57.10
298;DHT22;133;49.626;9.680;2022-08-20T11:46:00;29.10;59.10
298;DHT22;133;49.626;9.680;2022-08-20T11:48:25;27.90;62.40
298;DHT22;133;49.626;9.680;2022-08-20T11:50:51;27.40;64.20
298;DHT22;133;49.626;9.680;2022-08-20T11:53:17;27.10;64.60
298;DHT22;133;49.626;9.680;2022-08-20T11:55:43;27.00;64.80
298;DHT22;133;49.626;9.680;2022-08-20T11:58:09;27.00;64.60
298;DHT22;133;49.626;9.680;2022-08-20T12:00:35;26.70;65.90
298;DHT22;133;49.626;9.680;2022-08-20T12:03:01;26.70;66.10
298;DHT22;133;49.626;9.680;2022-08-20T12:05:29;26.60;66.10
298;DHT22;133;49.626;9.680;2022-08-20T12:07:55;26.40;66.00
298;DHT22;133;49.626;9.680;2022-08-20T12:10:20;26.00;66.80
298;DHT22;133;49.626;9.680;2022-08-20T12:12:48;26.00;66.60
298;DHT22;133;49.626;9.680;2022-08-20T12:15:14;25.90;66.70
298;DHT22;133;49.626;9.680;2022-08-20T12:17:39;25.60;67.50
298;DHT22;133;49.626;9.680;2022-08-20T12:20:09;25.50;67.90
298;DHT22;133;49.626;9.680;2022-08-20T12:22:36;25.50;68.40
298;DHT22;133;49.626;9.680;2022-08-20T12:25:03;25.50;68.20
298;DHT22;133;49.626;9.680;2022-08-20T12:27:30;25.50;68.10
298;DHT22;133;49.626;9.680;2022-08-20T12:29:58;25.40;68.50
298;DHT22;133;49.626;9.680;2022-08-20T12:32:26;25.30;69.00
298;DHT22;133;49.626;9.680;2022-08-20T12:34:53;25.20;69.40
298;DHT22;133;49.626;9.680;2022-08-20T12:37:22;25.30;69.30
298;DHT22;133;49.626;9.680;2022-08-20T12:39:51;25.40;69.20
298;DHT22;133;49.626;9.680;2022-08-20T12:42:17;25.30;69.50
298;DHT22;133;49.626;9.680;2022-08-20T12:44:43;25.40;69.30
298;DHT22;133;49.626;9.680;2022-08-20T12:47:12;25.30;69.80
298;DHT22;133;49.626;9.680;2022-08-20T12:49:41;25.30;70.60
298;DHT22;133;49.626;9.680;2022-08-20T12:52:08;25.10;72.00
298;DHT22;133;49.626;9.680;2022-08-20T12:54:34;25.00;72.40
298;DHT22;133;49.626;9.680;2022-08-20T12:57:00;25.00;72.80
298;DHT22;133;49.626;9.680;2022-08-20T12:59:26;25.10;72.80
298;DHT22;133;49.626;9.680;2022-08-20T13:01:52;25.20;72.60
298;DHT22;133;49.626;9.680;2022-08-20T13:04:18;25.20;72.50
298;DHT22;133;49.626;9.680;2022-08-20T13:06:45;25.20;72.80
298;DHT22;133;49.626;9.680;2022-08-20T13:09:11;25.20;72.80
298;DHT22;133;49.626;9.680;2022-08-20T13:11:37;25.20;72.80
298;DHT22;133;49.626;9.680;2022-08-20T13:14:03;25.40;72.70
298;DHT22;133;49.626;9.680;2022-08-20T13:16:28;25.60;71.80
298;DHT22;133;49.626;9.680;2022-08-20T13:18:54;25.80;71.50
298;DHT22;133;49.626;9.680;2022-08-20T13:21:20;26.00;71.20
298;DHT22;133;49.626;9.680;2022-08-20T13:23:45;26.10;70.80
298;DHT22;133;49.626;9.680;2022-08-20T13:26:11;26.10;70.60
298;DHT22;133;49.626;9.680;2022-08-20T13:28:36;26.50;70.00
298;DHT22;133;49.626;9.680;2022-08-20T13:31:02;26.70;68.80
298;DHT22;133;49.626;9.680;2022-08-20T13:33:28;26.80;68.10
298;DHT22;133;49.626;9.680;2022-08-20T13:35:54;27.40;67.00
298;DHT22;133;49.626;9.680;2022-08-20T13:38:20;28.10;65.30
298;DHT22;133;49.626;9.680;2022-08-20T13:40:46;28.80;63.60
298;DHT22;133;49.626;9.680;2022-08-20T13:43:12;29.30;62.10
298;DHT22;133;49.626;9.680;2022-08-20T13:45:38;29.50;60.70
298;DHT22;133;49.626;9.680;2022-08-20T13:48:05;30.10;60.10
298;DHT22;133;49.626;9.680;2022-08-20T13:50:32;30.20;59.80
298;DHT22;133;49.626;9.680;2022-08-20T13:53:08;30.80;58.40
298;DHT22;133;49.626;9.680;2022-08-20T13:55:34;31.20;56.70
298;DHT22;133;49.626;9.680;2022-08-20T13:58:04;30.90;56.40
298;DHT22;133;49.626;9.680;2022-08-20T14:00:35;30.40;56.60
298;DHT22;133;49.626;9.680;2022-08-20T14:03:02;30.00;58.00
298;DHT22;133;49.626;9.680;2022-08-20T14:05:29;29.80;58.20
298;DHT22;133;49.626;9.680;2022-08-20T14:07:55;29.50;58.90
298;DHT22;133;49.626;9.680;2022-08-20T14:10:23;29.20;59.80
298;DHT22;133;49.626;9.680;2022-08-20T14:12:50;28.70;60.70
298;DHT22;133;49.626;9.680;2022-08-20T14:15:16;28.10;62.40
298;DHT22;133;49.626;9.680;2022-08-20T14:17:49;27.50;61.70
298;DHT22;133;49.626;9.680;2022-08-20T14:20:18;27.00;61.20
298;DHT22;133;49.626;9.680;2022-08-20T14:22:44;26.60;61.80
298;DHT22;133;49.626;9.680;2022-08-20T14:25:12;26.50;62.10
298;DHT22;133;49.626;9.680;2022-08-20T14:27:38;26.40;62.60
298;DHT22;133;49.626;9.680;2022-08-20T14:30:07;26.20;63.10
298;DHT22;133;49.626;9.680;2022-08-20T14:32:33;26.00;63.10
298;DHT22;133;49.626;9.680;2022-08-20T14:34:59;26.00;63.00
298;DHT22;133;49.626;9.680;2022-08-20T14:37:29;26.10;63.20
298;DHT22;133;49.626;9.680;2022-08-20T14:39:56;26.20;62.90
298;DHT22;133;49.626;9.680;2022-08-20T14:42:23;26.00;62.60
298;DHT22;133;49.626;9.680;2022-08-20T14:44:50;26.10;62.90
298;DHT22;133;49.626;9.680;2022-08-20T14:47:18;26.20;62.70
298;DHT22;133;49.626;9.680;2022-08-20T14:49:45;26.30;62.40
298;DHT22;133;49.626;9.680;2022-08-20T14:52:12;26.60;61.80
298;DHT22;133;49.626;9.680;2022-08-20T14:54:40;26.70;61.80
298;DHT22;133;49.626;9.680;2022-08-20T14:57:06;26.90;59.80
298;DHT22;133;49.626;9.680;2022-08-20T14:59:32;27.50;58.80
298;DHT22;133;49.626;9.680;2022-08-20T15:02:03;28.10;57.70
298;DHT22;133;49.626;9.680;2022-08-20T15:04:29;28.70;57.30
298;DHT22;133;49.626;9.680;2022-08-20T15:06:55;29.30;56.60
298;DHT22;133;49.626;9.680;2022-08-20T15:09:21;29.30;56.20
298;DHT22;133;49.626;9.680;2022-08-20T15:11:47;29.60;55.90
298;DHT22;133;49.626;9.680;2022-08-20T15:14:13;30.00;56.00
298;DHT22;133;49.626;9.680;2022-08-20T15:16:39;30.10;56.20
298;DHT22;133;49.626;9.680;2022-08-20T15:19:05;30.00;56.60
298;DHT22;133;49.626;9.680;2022-08-20T15:21:31;30.10;57.30
298;DHT22;133;49.626;9.680;2022-08-20T15:23:57;30.10;57.80
298;DHT22;133;49.626;9.680;2022-08-20T15:26:23;30.00;58.40
298;DHT22;133;49.626;9.680;2022-08-20T15:28:49;29.90;58.70
298;DHT22;133;49.626;9.680;2022-08-20T15:31:14;29.70;59.50
298;DHT22;133;49.626;9.680;2022-08-20T15:33:43;29.30;60.90
298;DHT22;133;49.626;9.680;2022-08-20T15:36:12;29.00;61.70
298;DHT22;133;49.626;9.680;2022-08-20T15:38:38;28.80;62.60
298;DHT22;133;49.626;9.680;2022-08-20T15:41:04;28.50;63.50
298;DHT22;133;49.626;9.680;2022-08-20T15:43:31;28.10;64.70
298;DHT22;133;49.626;9.680;2022-08-20T15:45:58;27.80;65.70
298;DHT22;133;49.626;9.680;2022-08-20T15:48:34;27.40;67.60
298;DHT22;133;49.626;9.680;2022-08-20T16:14:09;23.30;82.50
298;DHT22;133;49.626;9.680;2022-08-20T16:16:42;23.10;83.90
298;DHT22;133;49.626;9.680;2022-08-20T16:22:05;23.10;85.20
298;DHT22;133;49.626;9.680;2022-08-20T16:24:32;23.40;83.20
298;DHT22;133;49.626;9.680;2022-08-20T16:32:04;24.10;77.10
298;DHT22;133;49.626;9.680;2022-08-20T16:34:41;24.30;75.40
298;DHT22;133;49.626;9.680;2022-08-20T16:42:28;25.00;73.00
298;DHT22;133;49.626;9.680;2022-08-20T16:44:58;25.00;73.10
298;DHT22;133;49.626;9.680;2022-08-20T16:47:33;25.00;72.40
298;DHT22;133;49.626;9.680;2022-08-20T16:50:24;25.10;72.10
298;DHT22;133;49.626;9.680;2022-08-20T16:52:51;25.20;71.30
298;DHT22;133;49.626;9.680;2022-08-20T16:55:18;25.30;70.70
298;DHT22;133;49.626;9.680;2022-08-20T16:57:45;25.30;70.20
298;DHT22;133;49.626;9.680;2022-08-20T17:00:26;25.40;69.30
298;DHT22;133;49.626;9.680;2022-08-20T17:02:56;25.40;70.00
298;DHT22;133;49.626;9.680;2022-08-20T17:05:26;25.50;69.90
298;DHT22;133;49.626;9.680;2022-08-20T17:08:00;25.60;70.10
298;DHT22;133;49.626;9.680;2022-08-20T17:13:32;25.60;69.20
298;DHT22;133;49.626;9.680;2022-08-20T17:16:04;25.70;69.30
298;DHT22;133;49.626;9.680;2022-08-20T17:18:33;25.80;69.30
298;DHT22;133;49.626;9.680;2022-08-20T17:23:32;25.80;71.80
298;DHT22;133;49.626;9.680;2022-08-20T17:26:13;25.70;71.20